createdAt,value
2023-10-13T00:00:17.625Z,20.40
2023-10-13T00:01:17.525Z,21.90
2023-10-13T00:02:17.532Z,23.80
2023-10-13T00:03:17.523Z,26.20
2023-10-13T00:04:17.481Z,18.40
2023-10-13T00:05:17.504Z,20.90
2023-10-13T00:06:17.280Z,20.60
2023-10-13T00:07:17.345Z,20.60
2023-10-13T00:08:17.252Z,19.60
2023-10-13T00:09:17.404Z,20.10
2023-10-13T00:10:17.274Z,19.70
2023-10-13T00:11:17.289Z,22.80
2023-10-13T00:12:17.280Z,21.40
2023-10-13T00:13:17.514Z,22.60
2023-10-13T00:14:17.261Z,20.30
2023-10-13T00:15:17.292Z,19.20
2023-10-13T00:16:17.228Z,22.20
2023-10-13T00:17:17.364Z,21.60
2023-10-13T00:18:17.241Z,18.60
2023-10-13T00:19:17.317Z,22.60
2023-10-13T00:20:17.094Z,19.50
2023-10-13T00:21:17.111Z,23.30
2023-10-13T00:22:17.517Z,20.60
2023-10-13T00:23:17.185Z,18.90
2023-10-13T00:24:17.159Z,15.80
2023-10-13T00:25:17.045Z,15.20
2023-10-13T00:26:17.008Z,18.50
2023-10-13T00:27:16.989Z,12.70
2023-10-13T00:28:17.004Z,13.70
2023-10-13T00:29:17.035Z,17.50
2023-10-13T00:30:17.433Z,15.60
2023-10-13T00:31:17.218Z,15.70
2023-10-13T00:32:17.041Z,18.20
2023-10-13T00:33:17.173Z,14.70
2023-10-13T00:34:17.200Z,15.50
2023-10-13T00:35:17.085Z,16.00
2023-10-13T00:36:17.128Z,13.90
2023-10-13T00:37:17.209Z,17.10
2023-10-13T00:38:17.160Z,19.30
2023-10-13T00:39:17.014Z,17.90
2023-10-13T00:40:17.236Z,18.60
2023-10-13T00:41:17.069Z,21.20
2023-10-13T00:42:17.299Z,18.70
2023-10-13T00:43:17.227Z,18.70
2023-10-13T00:44:17.133Z,17.80
2023-10-13T00:45:16.998Z,18.00
2023-10-13T00:46:17.146Z,15.40
2023-10-13T00:47:16.936Z,19.60
2023-10-13T00:48:16.910Z,21.10
2023-10-13T00:49:16.884Z,15.50
2023-10-13T00:50:16.894Z,15.10
2023-10-13T00:51:16.861Z,18.30
2023-10-13T00:52:16.696Z,20.00
2023-10-13T00:53:16.720Z,19.20
2023-10-13T00:54:16.749Z,17.20
2023-10-13T00:55:16.882Z,20.30
2023-10-13T00:56:16.664Z,18.00
2023-10-13T00:57:16.662Z,17.00
2023-10-13T00:58:16.640Z,16.50
2023-10-13T00:59:16.638Z,18.50
2023-10-13T01:00:16.623Z,19.00
2023-10-13T01:01:52.127Z,17.10
2023-10-13T01:02:17.578Z,19.00
2023-10-13T01:03:16.547Z,19.10
2023-10-13T01:04:16.696Z,20.10
2023-10-13T01:05:16.633Z,20.50
2023-10-13T01:06:16.563Z,19.70
2023-10-13T01:07:16.563Z,19.80
2023-10-13T01:08:16.512Z,18.10
2023-10-13T01:09:16.504Z,17.00
2023-10-13T01:10:16.594Z,19.80
2023-10-13T01:11:16.602Z,20.90
2023-10-13T01:12:16.443Z,19.80
2023-10-13T01:13:16.460Z,18.50
2023-10-13T01:14:16.460Z,19.70
2023-10-13T01:15:16.461Z,16.50
2023-10-13T01:16:16.472Z,18.20
2023-10-13T01:17:16.364Z,19.40
2023-10-13T01:18:16.374Z,16.90
2023-10-13T01:19:16.340Z,19.30
2023-10-13T01:20:16.500Z,19.40
2023-10-13T01:21:16.457Z,18.30
2023-10-13T01:22:16.287Z,20.40
2023-10-13T01:23:16.232Z,21.60
2023-10-13T01:24:16.468Z,22.10
2023-10-13T01:25:16.403Z,19.00
2023-10-13T01:26:16.428Z,21.40
2023-10-13T01:27:16.237Z,20.90
2023-10-13T01:28:16.266Z,20.50
2023-10-13T01:29:16.203Z,20.90
2023-10-13T01:30:16.319Z,18.50
2023-10-13T01:31:16.338Z,18.20
2023-10-13T01:32:16.309Z,19.20
2023-10-13T01:33:16.252Z,20.00
2023-10-13T01:34:16.171Z,19.20
2023-10-13T01:35:16.293Z,18.80
2023-10-13T01:36:16.133Z,19.60
2023-10-13T01:37:16.159Z,19.40
2023-10-13T01:38:16.217Z,18.20
2023-10-13T01:39:16.150Z,22.60
2023-10-13T01:40:16.026Z,22.00
2023-10-13T01:41:16.122Z,21.50
2023-10-13T01:42:15.997Z,21.20
2023-10-13T01:43:16.092Z,21.80
2023-10-13T01:44:16.047Z,22.80
2023-10-13T01:45:16.151Z,22.40
2023-10-13T01:46:16.022Z,21.80
2023-10-13T01:47:15.854Z,24.00
2023-10-13T01:48:16.007Z,22.70
2023-10-13T01:49:15.909Z,21.10
2023-10-13T01:50:16.036Z,21.90
2023-10-13T01:51:15.890Z,21.50
2023-10-13T01:52:15.888Z,21.40
2023-10-13T01:53:15.854Z,23.00
2023-10-13T01:54:15.774Z,24.00
2023-10-13T01:55:15.954Z,21.40
2023-10-13T01:56:15.900Z,21.20
2023-10-13T01:57:15.823Z,23.90
2023-10-13T01:58:15.804Z,24.20
2023-10-13T01:59:15.810Z,25.10
2023-10-13T02:00:15.772Z,24.60
2023-10-13T02:01:15.811Z,23.00
2023-10-13T02:02:15.917Z,24.00
2023-10-13T02:03:15.847Z,22.00
2023-10-13T02:04:15.749Z,26.10
2023-10-13T02:05:15.736Z,20.90
2023-10-13T02:06:23.208Z,24.50
2023-10-13T02:07:15.664Z,23.10
2023-10-13T02:08:15.795Z,21.80
2023-10-13T02:09:15.644Z,24.30
2023-10-13T02:10:15.559Z,22.80
2023-10-13T02:11:15.686Z,24.70
2023-10-13T02:12:15.505Z,22.10
2023-10-13T02:13:15.659Z,24.60
2023-10-13T02:14:15.617Z,25.20
2023-10-13T02:15:15.495Z,23.80
2023-10-13T02:16:15.585Z,23.20
2023-10-13T02:17:15.407Z,25.20
2023-10-13T02:18:15.560Z,21.40
2023-10-13T02:19:15.933Z,24.70
2023-10-13T02:20:25.717Z,23.70
2023-10-13T02:21:15.450Z,24.70
2023-10-13T02:22:15.473Z,27.20
2023-10-13T02:23:22.498Z,24.90
2023-10-13T02:24:15.324Z,23.20
2023-10-13T02:25:15.467Z,26.10
2023-10-13T02:26:15.540Z,22.40
2023-10-13T02:27:15.359Z,25.30
2023-10-13T02:28:15.493Z,23.40
2023-10-13T02:29:15.341Z,25.20
2023-10-13T02:30:15.352Z,25.60
2023-10-13T02:31:15.379Z,25.40
2023-10-13T02:32:15.298Z,26.70
2023-10-13T02:33:15.274Z,28.10
2023-10-13T02:34:15.342Z,26.50
2023-10-13T02:35:15.268Z,25.80
2023-10-13T02:36:15.374Z,24.00
2023-10-13T02:37:15.330Z,24.90
2023-10-13T02:38:15.339Z,25.50
2023-10-13T02:39:15.195Z,26.90
2023-10-13T02:40:15.146Z,23.90
2023-10-13T02:41:15.059Z,24.40
2023-10-13T02:42:15.045Z,26.50
2023-10-13T02:43:15.158Z,23.90
2023-10-13T02:44:15.085Z,22.70
2023-10-13T02:45:14.996Z,25.40
2023-10-13T02:46:15.255Z,23.40
2023-10-13T02:47:15.325Z,25.20
2023-10-13T02:48:15.069Z,20.80
2023-10-13T02:49:15.005Z,23.70
2023-10-13T02:50:14.980Z,24.30
2023-10-13T02:51:14.950Z,23.00
2023-10-13T02:52:14.919Z,24.40
2023-10-13T02:53:14.864Z,22.10
2023-10-13T02:54:14.909Z,20.90
2023-10-13T02:55:14.884Z,23.50
2023-10-13T02:56:14.896Z,23.90
2023-10-13T02:57:14.836Z,25.10
2023-10-13T02:58:14.804Z,23.20
2023-10-13T02:59:14.796Z,21.60
2023-10-13T03:00:14.819Z,19.50
2023-10-13T03:01:14.862Z,23.00
2023-10-13T03:02:14.791Z,23.10
2023-10-13T03:03:14.806Z,22.50
2023-10-13T03:04:14.788Z,25.50
2023-10-13T03:05:14.834Z,24.30
2023-10-13T03:06:14.745Z,26.80
2023-10-13T03:07:14.850Z,25.30
2023-10-13T03:08:14.787Z,23.80
2023-10-13T03:09:14.707Z,24.00
2023-10-13T03:10:14.690Z,18.80
2023-10-13T03:11:14.606Z,22.80
2023-10-13T03:12:14.594Z,28.60
2023-10-13T03:13:14.661Z,21.10
2023-10-13T03:14:14.739Z,21.80
2023-10-13T03:15:14.680Z,21.40
2023-10-13T03:16:14.711Z,23.50
2023-10-13T03:17:14.700Z,22.30
2023-10-13T03:18:14.593Z,22.60
2023-10-13T03:19:14.582Z,24.60
2023-10-13T03:20:14.622Z,21.60
2023-10-13T03:21:14.498Z,21.10
2023-10-13T03:22:14.489Z,25.50
2023-10-13T03:23:14.560Z,27.10
2023-10-13T03:24:14.457Z,20.50
2023-10-13T03:25:14.530Z,24.10
2023-10-13T03:26:14.518Z,21.30
2023-10-13T03:27:14.416Z,21.00
2023-10-13T03:28:14.465Z,18.40
2023-10-13T03:29:14.388Z,20.90
2023-10-13T03:30:14.390Z,20.40
2023-10-13T03:31:14.491Z,20.00
2023-10-13T03:32:14.330Z,19.80
2023-10-13T03:33:14.481Z,22.40
2023-10-13T03:34:14.320Z,21.50
2023-10-13T03:35:14.285Z,20.30
2023-10-13T03:36:14.267Z,20.20
2023-10-13T03:37:14.373Z,22.60
2023-10-13T03:38:14.297Z,21.50
2023-10-13T03:39:14.235Z,19.00
2023-10-13T03:40:14.303Z,19.20
2023-10-13T03:41:14.208Z,22.10
2023-10-13T03:42:14.200Z,20.00
2023-10-13T03:43:14.293Z,21.60
2023-10-13T03:44:14.198Z,21.00
2023-10-13T03:45:14.214Z,22.30
2023-10-13T03:46:14.364Z,20.20
2023-10-13T03:47:14.136Z,17.50
2023-10-13T03:48:14.186Z,21.00
2023-10-13T03:49:14.232Z,18.80
2023-10-13T03:50:14.169Z,21.30
2023-10-13T03:51:14.093Z,22.10
2023-10-13T03:52:14.071Z,25.10
2023-10-13T03:53:14.162Z,21.60
2023-10-13T03:54:14.030Z,24.40
2023-10-13T03:55:14.050Z,22.40
2023-10-13T03:56:14.049Z,20.50
2023-10-13T03:57:14.041Z,21.20
2023-10-13T03:58:14.031Z,25.90
2023-10-13T03:59:13.981Z,22.90
2023-10-13T04:00:14.013Z,23.50
2023-10-13T04:01:13.968Z,21.70
2023-10-13T04:02:13.958Z,22.30
2023-10-13T04:03:13.923Z,21.90
2023-10-13T04:04:13.987Z,22.40
2023-10-13T04:05:13.911Z,19.60
2023-10-13T04:06:13.871Z,20.20
2023-10-13T04:07:13.910Z,20.20
2023-10-13T04:08:13.896Z,23.60
2023-10-13T04:09:13.845Z,21.70
2023-10-13T04:10:13.908Z,20.30
2023-10-13T04:11:13.813Z,22.20
2023-10-13T04:12:13.828Z,22.50
2023-10-13T04:13:13.824Z,21.00
2023-10-13T04:14:13.751Z,22.70
2023-10-13T04:15:13.843Z,21.60
2023-10-13T04:16:14.254Z,23.50
2023-10-13T04:17:13.730Z,24.20
2023-10-13T04:18:13.810Z,22.00
2023-10-13T04:19:13.771Z,23.90
2023-10-13T04:20:13.702Z,23.00
2023-10-13T04:21:13.716Z,23.20
2023-10-13T04:22:13.706Z,27.20
2023-10-13T04:23:13.669Z,28.20
2023-10-13T04:24:13.696Z,22.60
2023-10-13T04:25:13.685Z,22.70
2023-10-13T04:26:13.597Z,24.90
2023-10-13T04:27:13.689Z,24.00
2023-10-13T04:28:13.672Z,22.50
2023-10-13T04:29:13.541Z,20.00
2023-10-13T04:30:13.535Z,29.00
2023-10-13T04:31:13.776Z,24.60
2023-10-13T04:32:13.521Z,25.60
2023-10-13T04:33:13.596Z,23.60
2023-10-13T04:34:13.561Z,24.20
2023-10-13T04:35:13.493Z,22.00
2023-10-13T04:36:13.491Z,22.60
2023-10-13T04:37:13.468Z,22.60
2023-10-13T04:38:13.517Z,24.90
2023-10-13T04:39:13.414Z,22.00
2023-10-13T04:40:13.465Z,21.90
2023-10-13T04:41:13.428Z,25.40
2023-10-13T04:42:13.413Z,28.80
2023-10-13T04:43:13.435Z,23.20
2023-10-13T04:44:13.481Z,22.60
2023-10-13T04:45:13.342Z,22.20
2023-10-13T04:46:13.460Z,21.70
2023-10-13T04:47:13.430Z,21.60
2023-10-13T04:48:13.441Z,23.20
2023-10-13T04:49:13.412Z,21.40
2023-10-13T04:50:13.280Z,23.40
2023-10-13T04:51:13.423Z,22.00
2023-10-13T04:52:13.343Z,25.60
2023-10-13T04:53:13.213Z,20.40
2023-10-13T04:54:13.367Z,21.80
2023-10-13T04:55:13.210Z,22.00
2023-10-13T04:56:13.202Z,22.90
2023-10-13T04:57:13.185Z,21.90
2023-10-13T04:58:13.259Z,21.50
2023-10-13T04:59:13.129Z,21.20
2023-10-13T05:00:13.364Z,21.80
2023-10-13T05:01:13.237Z,25.10
2023-10-13T05:02:13.254Z,21.20
2023-10-13T05:03:13.159Z,23.10
2023-10-13T05:04:13.244Z,22.40
2023-10-13T05:05:13.066Z,20.50
2023-10-13T05:06:13.087Z,22.00
2023-10-13T05:07:13.123Z,21.70
2023-10-13T05:08:13.038Z,20.10
2023-10-13T05:09:13.027Z,21.50
2023-10-13T05:10:13.135Z,19.10
2023-10-13T05:11:13.033Z,20.40
2023-10-13T05:12:13.010Z,23.60
2023-10-13T05:13:13.089Z,22.10
2023-10-13T05:14:12.966Z,20.70
2023-10-13T05:15:12.943Z,22.50
2023-10-13T05:16:13.078Z,22.90
2023-10-13T05:17:13.066Z,23.30
2023-10-13T05:18:12.940Z,20.50
2023-10-13T05:19:12.883Z,23.40
2023-10-13T05:20:13.001Z,21.80
2023-10-13T05:21:12.863Z,20.30
2023-10-13T05:22:12.912Z,22.20
2023-10-13T05:23:12.942Z,20.10
2023-10-13T05:24:12.848Z,21.00
2023-10-13T05:25:12.853Z,22.60
2023-10-13T05:26:12.830Z,21.00
2023-10-13T05:27:13.037Z,20.30
2023-10-13T05:28:26.470Z,21.40
2023-10-13T05:29:26.298Z,18.20
2023-10-13T05:30:13.846Z,17.80
2023-10-13T05:31:12.799Z,18.60
2023-10-13T05:32:12.806Z,15.40
2023-10-13T05:33:12.756Z,16.90
2023-10-13T05:34:12.726Z,16.70
2023-10-13T05:35:12.705Z,17.40
2023-10-13T05:36:12.672Z,16.10
2023-10-13T05:37:12.665Z,18.60
2023-10-13T05:38:12.777Z,20.50
2023-10-13T05:39:12.609Z,17.70
2023-10-13T05:40:12.738Z,16.30
2023-10-13T05:41:12.618Z,15.00
2023-10-13T05:42:12.700Z,15.40
2023-10-13T05:43:12.594Z,15.80
2023-10-13T05:44:12.547Z,15.50
2023-10-13T05:45:12.568Z,15.70
2023-10-13T05:46:12.668Z,14.20
2023-10-13T05:47:12.607Z,20.90
2023-10-13T05:48:12.631Z,17.50
2023-10-13T05:49:12.603Z,18.50
2023-10-13T05:50:12.464Z,18.80
2023-10-13T05:51:12.446Z,19.10
2023-10-13T05:52:12.524Z,24.60
2023-10-13T05:53:12.628Z,14.30
2023-10-13T05:54:12.456Z,20.70
2023-10-13T05:55:13.359Z,16.30
2023-10-13T05:56:12.381Z,16.30
2023-10-13T05:57:12.404Z,17.80
2023-10-13T05:58:12.442Z,22.10
2023-10-13T05:59:12.344Z,22.80
2023-10-13T06:00:12.398Z,18.20
2023-10-13T06:01:12.424Z,16.90
2023-10-13T06:02:12.390Z,21.70
2023-10-13T06:03:12.276Z,16.30
2023-10-13T06:04:12.452Z,17.30
2023-10-13T06:05:12.307Z,16.40
2023-10-13T06:06:12.395Z,19.30
2023-10-13T06:07:12.266Z,17.70
2023-10-13T06:08:12.216Z,21.40
2023-10-13T06:09:12.241Z,41.20
2023-10-13T06:10:12.298Z,23.60
2023-10-13T06:11:23.845Z,23.00
2023-10-13T06:12:12.167Z,19.20
2023-10-13T06:13:12.159Z,19.90
2023-10-13T06:14:12.183Z,16.90
2023-10-13T06:15:12.141Z,18.20
2023-10-13T06:16:12.203Z,19.90
2023-10-13T06:17:12.148Z,16.60
2023-10-13T06:18:14.857Z,20.30
2023-10-13T06:19:12.111Z,20.30
2023-10-13T06:20:12.123Z,17.70
2023-10-13T06:21:12.207Z,15.90
2023-10-13T06:22:12.112Z,19.00
2023-10-13T06:23:11.985Z,19.80
2023-10-13T06:24:12.022Z,18.10
2023-10-13T06:25:12.126Z,18.50
2023-10-13T06:26:12.051Z,21.00
2023-10-13T06:27:12.009Z,17.50
2023-10-13T06:28:11.983Z,30.10
2023-10-13T06:29:12.091Z,16.20
2023-10-13T06:30:11.945Z,17.70
2023-10-13T06:31:11.988Z,17.20
2023-10-13T06:32:14.795Z,16.20
2023-10-13T06:33:12.006Z,16.40
2023-10-13T06:34:11.911Z,16.70
2023-10-13T06:35:11.843Z,18.30
2023-10-13T06:36:11.823Z,17.20
2023-10-13T06:37:11.911Z,18.30
2023-10-13T06:38:11.807Z,17.30
2023-10-13T06:39:11.816Z,15.60
2023-10-13T06:40:11.924Z,15.60
2023-10-13T06:41:11.781Z,16.80
2023-10-13T06:42:11.865Z,16.00
2023-10-13T06:43:11.757Z,16.20
2023-10-13T06:44:11.717Z,14.60
2023-10-13T06:45:11.741Z,14.10
2023-10-13T06:46:11.691Z,14.40
2023-10-13T06:47:11.848Z,15.10
2023-10-13T06:48:11.659Z,15.20
2023-10-13T06:49:11.705Z,18.60
2023-10-13T06:50:11.626Z,19.10
2023-10-13T06:51:11.687Z,16.20
2023-10-13T06:52:11.610Z,14.80
2023-10-13T06:53:11.591Z,15.60
2023-10-13T06:54:11.563Z,14.20
2023-10-13T06:55:11.634Z,14.50
2023-10-13T06:56:11.687Z,12.80
2023-10-13T06:57:11.593Z,16.80
2023-10-13T06:58:11.552Z,12.60
2023-10-13T06:59:11.548Z,15.20
2023-10-13T07:00:11.494Z,12.60
2023-10-13T07:01:11.488Z,14.60
2023-10-13T07:02:27.017Z,11.90
2023-10-13T07:03:12.612Z,15.10
2023-10-13T07:04:11.650Z,11.60
2023-10-13T07:05:11.484Z,13.70
2023-10-13T07:06:11.468Z,12.30
2023-10-13T07:07:11.431Z,14.60
2023-10-13T07:08:11.415Z,15.40
2023-10-13T07:09:11.574Z,14.90
2023-10-13T07:10:11.389Z,15.10
2023-10-13T07:11:11.348Z,15.70
2023-10-13T07:12:11.349Z,13.90
2023-10-13T07:13:11.387Z,15.50
2023-10-13T07:14:12.049Z,14.20
2023-10-13T07:15:11.339Z,15.80
2023-10-13T07:16:14.563Z,15.20
2023-10-13T07:17:12.338Z,13.00
2023-10-13T07:18:11.359Z,15.60
2023-10-13T07:19:11.218Z,14.70
2023-10-13T07:20:11.250Z,13.50
2023-10-13T07:21:11.235Z,18.60
2023-10-13T07:22:11.202Z,16.20
2023-10-13T07:23:11.359Z,16.40
2023-10-13T07:24:11.164Z,18.10
2023-10-13T07:25:11.133Z,16.10
2023-10-13T07:26:11.138Z,15.80
2023-10-13T07:27:11.236Z,14.80
2023-10-13T07:28:11.244Z,16.60
2023-10-13T07:29:11.098Z,15.00
2023-10-13T07:30:11.083Z,14.20
2023-10-13T07:31:11.101Z,17.00
2023-10-13T07:32:11.199Z,15.30
2023-10-13T07:33:11.139Z,15.50
2023-10-13T07:34:11.017Z,17.20
2023-10-13T07:35:11.024Z,17.60
2023-10-13T07:36:11.032Z,13.90
2023-10-13T07:37:11.169Z,12.70
2023-10-13T07:38:11.013Z,20.90
2023-10-13T07:39:22.079Z,13.20
2023-10-13T07:40:12.006Z,14.90
2023-10-13T07:41:11.077Z,17.00
2023-10-13T07:42:10.958Z,15.30
2023-10-13T07:43:10.931Z,18.30
2023-10-13T07:44:10.942Z,13.70
2023-10-13T07:45:10.952Z,14.70
2023-10-13T07:46:11.073Z,15.60
2023-10-13T07:47:10.935Z,15.10
2023-10-13T07:48:10.898Z,14.50
2023-10-13T07:49:10.863Z,12.70
2023-10-13T07:50:10.842Z,14.80
2023-10-13T07:51:10.881Z,15.00
2023-10-13T07:52:10.794Z,12.80
2023-10-13T07:53:10.827Z,14.40
2023-10-13T07:54:10.766Z,10.50
2023-10-13T07:55:10.934Z,10.90
2023-10-13T07:56:11.008Z,13.70
2023-10-13T07:57:10.777Z,14.10
2023-10-13T07:58:10.721Z,11.80
2023-10-13T07:59:10.691Z,10.70
2023-10-13T08:00:10.794Z,11.50
2023-10-13T08:01:10.763Z,11.00
2023-10-13T08:02:10.817Z,12.90
2023-10-13T08:03:10.919Z,10.00
2023-10-13T08:04:10.860Z,7.80
2023-10-13T08:05:10.605Z,7.60
2023-10-13T08:06:10.604Z,12.80
2023-10-13T08:07:10.604Z,8.70
2023-10-13T08:08:10.594Z,8.90
2023-10-13T08:09:10.682Z,10.20
2023-10-13T08:10:10.604Z,7.50
2023-10-13T08:11:10.540Z,8.80
2023-10-13T08:12:10.536Z,10.20
2023-10-13T08:13:10.573Z,9.60
2023-10-13T08:14:18.768Z,10.20
2023-10-13T08:15:11.501Z,11.50
2023-10-13T08:16:10.564Z,9.10
2023-10-13T08:17:10.688Z,8.20
2023-10-13T08:18:10.602Z,6.60
2023-10-13T08:19:10.423Z,9.10
2023-10-13T08:20:10.437Z,9.10
2023-10-13T08:21:10.585Z,8.70
2023-10-13T08:22:10.382Z,8.80
2023-10-13T08:23:10.408Z,8.20
2023-10-13T08:24:10.396Z,7.10
2023-10-13T08:25:10.404Z,8.00
2023-10-13T08:26:10.414Z,7.40
2023-10-13T08:27:10.337Z,12.10
2023-10-13T08:28:10.315Z,7.90
2023-10-13T08:29:10.365Z,8.90
2023-10-13T08:30:10.356Z,8.40
2023-10-13T08:31:10.318Z,8.00
2023-10-13T08:32:10.377Z,8.70
2023-10-13T08:33:10.299Z,8.40
2023-10-13T08:34:10.223Z,7.10
2023-10-13T08:35:10.272Z,5.40
2023-10-13T08:36:10.211Z,8.10
2023-10-13T08:37:10.176Z,7.30
2023-10-13T08:38:22.714Z,9.00
2023-10-13T08:39:11.164Z,8.40
2023-10-13T08:41:11.142Z,8.20
2023-10-13T08:42:10.301Z,8.10
2023-10-13T08:43:10.172Z,7.90
2023-10-13T08:44:10.104Z,6.40
2023-10-13T08:45:10.167Z,7.20
2023-10-13T08:46:10.089Z,9.20
2023-10-13T08:47:10.292Z,7.50
2023-10-13T08:48:10.117Z,6.80
2023-10-13T08:49:10.048Z,9.70
2023-10-13T08:50:10.034Z,7.40
2023-10-13T08:51:10.120Z,8.80
2023-10-13T08:52:10.110Z,7.90
2023-10-13T08:53:09.974Z,9.70
2023-10-13T08:54:10.113Z,8.90
2023-10-13T08:55:09.918Z,8.40
2023-10-13T08:56:10.002Z,7.80
2023-10-13T08:57:09.926Z,8.20
2023-10-13T08:58:09.868Z,7.00
2023-10-13T08:59:09.894Z,6.30
2023-10-13T09:00:09.875Z,10.20
2023-10-13T09:01:09.975Z,11.80
2023-10-13T09:02:09.891Z,6.50
2023-10-13T09:03:09.991Z,9.40
2023-10-13T09:04:09.815Z,7.10
2023-10-13T09:05:09.908Z,8.20
2023-10-13T09:06:09.811Z,7.50
2023-10-13T09:07:09.811Z,10.80
2023-10-13T09:08:09.780Z,6.00
2023-10-13T09:09:09.833Z,10.60
2023-10-13T09:10:09.744Z,9.40
2023-10-13T09:11:09.814Z,8.50
2023-10-13T09:12:09.720Z,7.60
2023-10-13T09:13:09.778Z,12.30
2023-10-13T09:14:09.678Z,8.60
2023-10-13T09:15:09.716Z,10.60
2023-10-13T09:16:09.757Z,8.50
2023-10-13T09:17:09.888Z,8.40
2023-10-13T09:18:09.694Z,7.10
2023-10-13T09:19:09.649Z,7.50
2023-10-13T09:20:09.621Z,8.10
2023-10-13T09:21:09.610Z,7.80
2023-10-13T09:22:09.702Z,9.10
2023-10-13T09:23:09.626Z,9.50
2023-10-13T09:24:09.574Z,6.60
2023-10-13T09:25:09.668Z,9.30
2023-10-13T09:26:09.514Z,7.00
2023-10-13T09:27:09.501Z,9.50
2023-10-13T09:28:09.528Z,9.20
2023-10-13T09:29:09.519Z,8.00
2023-10-13T09:30:09.526Z,8.50
2023-10-13T09:31:09.606Z,9.30
2023-10-13T09:32:09.491Z,10.30
2023-10-13T09:33:09.517Z,8.30
2023-10-13T09:34:09.403Z,6.80
2023-10-13T09:35:09.442Z,7.60
2023-10-13T09:36:09.446Z,7.70
2023-10-13T09:37:09.435Z,7.10
2023-10-13T09:38:09.359Z,9.30
2023-10-13T09:39:09.386Z,8.80
2023-10-13T09:40:09.529Z,8.00
2023-10-13T09:41:09.331Z,7.50
2023-10-13T09:42:09.289Z,7.20
2023-10-13T09:43:09.379Z,8.40
2023-10-13T09:44:09.282Z,8.70
2023-10-13T09:45:09.248Z,8.10
2023-10-13T09:46:09.264Z,5.90
2023-10-13T09:47:09.630Z,9.00
2023-10-13T09:48:09.239Z,7.90
2023-10-13T09:49:09.263Z,5.80
2023-10-13T09:50:09.223Z,7.30
2023-10-13T09:51:09.195Z,7.80
2023-10-13T09:52:09.166Z,8.60
2023-10-13T09:53:09.157Z,8.30
2023-10-13T09:54:32.614Z,7.00
2023-10-13T09:55:10.242Z,9.80
2023-10-13T09:56:09.163Z,6.40
2023-10-13T09:57:09.189Z,6.80
2023-10-13T09:58:09.240Z,5.60
2023-10-13T09:59:09.093Z,8.80
2023-10-13T10:00:09.101Z,6.50
2023-10-13T10:01:09.091Z,7.00
2023-10-13T10:02:09.127Z,6.70
2023-10-13T10:03:09.086Z,6.70
2023-10-13T10:04:09.090Z,7.50
2023-10-13T10:05:09.105Z,6.60
2023-10-13T10:06:09.017Z,6.10
2023-10-13T10:07:10.480Z,6.90
2023-10-13T10:08:08.944Z,9.60
2023-10-13T10:09:09.052Z,9.20
2023-10-13T10:10:08.904Z,9.50
2023-10-13T10:11:09.121Z,6.70
2023-10-13T10:12:09.143Z,9.20
2023-10-13T10:13:08.993Z,9.90
2023-10-13T10:14:08.909Z,9.50
2023-10-13T10:15:09.010Z,9.90
2023-10-13T10:16:08.903Z,11.10
2023-10-13T10:17:09.183Z,8.30
2023-10-13T10:18:08.923Z,9.00
2023-10-13T10:19:08.876Z,10.70
2023-10-13T10:20:08.805Z,11.60
2023-10-13T10:21:08.883Z,10.50
2023-10-13T10:22:08.858Z,10.40
2023-10-13T10:23:08.779Z,10.20
2023-10-13T10:24:08.816Z,7.90
2023-10-13T10:25:08.787Z,10.90
2023-10-13T10:26:08.704Z,8.70
2023-10-13T10:27:08.879Z,10.10
2023-10-13T10:28:08.844Z,6.50
2023-10-13T10:29:08.679Z,10.10
2023-10-13T10:30:08.665Z,9.10
2023-10-13T10:31:08.794Z,17.40
2023-10-13T10:32:08.650Z,6.30
2023-10-13T10:33:08.678Z,7.30
2023-10-13T10:34:08.706Z,9.60
2023-10-13T10:35:08.676Z,7.10
2023-10-13T10:36:08.741Z,8.40
2023-10-13T10:37:08.563Z,6.80
2023-10-13T10:38:08.618Z,9.90
2023-10-13T10:39:08.521Z,9.20
2023-10-13T10:40:08.515Z,5.90
2023-10-13T10:41:08.520Z,9.60
2023-10-13T10:42:08.501Z,6.90
2023-10-13T10:43:21.376Z,8.00
2023-10-13T10:44:09.522Z,9.10
2023-10-13T10:45:08.493Z,6.60
2023-10-13T10:46:08.491Z,10.20
2023-10-13T10:47:08.572Z,6.80
2023-10-13T10:48:08.518Z,10.50
2023-10-13T10:49:08.452Z,8.20
2023-10-13T10:50:08.492Z,7.50
2023-10-13T10:51:38.674Z,12.20
2023-10-13T10:52:08.387Z,10.30
2023-10-13T10:54:20.800Z,10.90
2023-10-13T10:55:20.416Z,10.50
2023-10-13T10:56:21.604Z,8.20
2023-10-13T10:57:20.314Z,7.40
2023-10-13T10:58:20.364Z,8.40
2023-10-13T10:59:20.329Z,7.60
2023-10-13T11:00:20.380Z,7.40
2023-10-13T11:01:20.466Z,8.00
2023-10-13T11:02:20.252Z,9.40
2023-10-13T11:03:20.541Z,7.40
2023-10-13T11:04:21.042Z,7.00
2023-10-13T11:05:20.249Z,7.50
2023-10-13T11:06:33.100Z,6.70
2023-10-13T11:07:21.265Z,6.30
2023-10-13T11:08:20.175Z,7.50
2023-10-13T11:09:20.158Z,9.00
2023-10-13T11:10:20.262Z,6.80
2023-10-13T11:11:20.161Z,7.10
2023-10-13T11:12:20.154Z,7.00
2023-10-13T11:13:20.151Z,6.80
2023-10-13T11:14:20.489Z,8.00
2023-10-13T11:15:20.133Z,5.50
2023-10-13T11:16:20.163Z,6.40
2023-10-13T11:17:20.107Z,5.50
2023-10-13T11:18:20.372Z,8.90
2023-10-13T11:19:20.180Z,10.90
2023-10-13T11:20:20.071Z,9.20
2023-10-13T11:21:20.022Z,5.10
2023-10-13T11:22:20.053Z,9.30
2023-10-13T11:23:19.948Z,8.30
2023-10-13T11:24:20.206Z,9.10
2023-10-13T11:25:19.967Z,7.80
2023-10-13T11:26:19.963Z,10.40
2023-10-13T11:27:19.905Z,9.10
2023-10-13T11:28:20.022Z,8.90
2023-10-13T11:29:19.889Z,8.20
2023-10-13T11:30:19.984Z,6.50
2023-10-13T11:31:19.919Z,9.20
2023-10-13T11:32:19.958Z,8.50
2023-10-13T11:33:20.237Z,8.10
2023-10-13T11:34:19.954Z,8.00
2023-10-13T11:35:19.897Z,6.30
2023-10-13T11:36:20.020Z,9.80
2023-10-13T11:37:19.844Z,7.40
2023-10-13T11:38:19.878Z,11.20
2023-10-13T11:39:19.775Z,9.40
2023-10-13T11:40:19.767Z,7.80
2023-10-13T11:41:19.743Z,6.50
2023-10-13T11:42:19.890Z,5.80
2023-10-13T11:43:19.819Z,9.20
2023-10-13T11:44:19.865Z,7.00
2023-10-13T11:45:19.741Z,7.60
2023-10-13T11:46:19.757Z,7.90
2023-10-13T11:48:03.708Z,9.30
2023-10-13T11:48:19.707Z,8.10
2023-10-13T11:49:19.721Z,8.00
2023-10-13T11:50:43.117Z,5.50
2023-10-13T11:51:20.716Z,8.20
2023-10-13T11:52:19.683Z,12.20
2023-10-13T11:53:19.618Z,7.30
2023-10-13T11:54:20.223Z,11.80
2023-10-13T11:55:19.624Z,9.40
2023-10-13T11:56:19.515Z,6.40
2023-10-13T11:57:19.584Z,9.40
2023-10-13T11:58:19.538Z,6.30
2023-10-13T11:59:19.827Z,8.50
2023-10-13T12:00:19.511Z,10.80
2023-10-13T12:01:19.733Z,5.10
2023-10-13T12:02:19.589Z,9.60
2023-10-13T12:03:28.247Z,7.00
2023-10-13T12:04:20.808Z,7.30
2023-10-13T12:05:19.498Z,10.80
2023-10-13T12:06:19.549Z,8.50
2023-10-13T12:07:19.524Z,9.00
2023-10-13T12:08:19.498Z,7.60
2023-10-13T12:09:19.412Z,11.80
2023-10-13T12:10:19.380Z,8.40
2023-10-13T12:11:19.386Z,10.20
2023-10-13T12:12:19.411Z,6.20
2023-10-13T12:13:19.523Z,8.90
2023-10-13T12:14:19.467Z,10.60
2023-10-13T12:15:19.606Z,12.30
2023-10-13T12:16:19.292Z,7.30
2023-10-13T12:17:21.509Z,4.60
2023-10-13T12:18:19.372Z,8.00
2023-10-13T12:19:19.443Z,7.80
2023-10-13T12:20:19.356Z,5.90
2023-10-13T12:21:19.363Z,7.90
2023-10-13T12:22:19.245Z,7.60
2023-10-13T12:23:19.314Z,10.80
2023-10-13T12:24:19.279Z,7.30
2023-10-13T12:25:19.158Z,6.30
2023-10-13T12:26:19.185Z,6.70
2023-10-13T12:27:19.194Z,5.30
2023-10-13T12:28:19.208Z,6.90
2023-10-13T12:29:19.125Z,7.10
2023-10-13T12:30:19.096Z,8.80
2023-10-13T12:31:19.165Z,5.50
2023-10-13T12:32:19.197Z,6.50
2023-10-13T12:33:19.109Z,8.70
2023-10-13T12:34:19.118Z,6.40
2023-10-13T12:35:19.144Z,7.70
2023-10-13T12:36:19.019Z,6.40
2023-10-13T12:37:24.780Z,6.70
2023-10-13T12:38:20.189Z,8.30
2023-10-13T12:39:21.434Z,7.80
2023-10-13T12:40:19.081Z,6.00
2023-10-13T12:41:28.801Z,6.40
2023-10-13T12:42:19.981Z,4.70
2023-10-13T12:43:18.987Z,3.50
2023-10-13T12:44:19.011Z,8.50
2023-10-13T12:45:18.882Z,5.00
2023-10-13T12:46:18.926Z,6.30
2023-10-13T12:47:18.968Z,6.10
2023-10-13T12:48:18.869Z,6.10
2023-10-13T12:49:18.996Z,7.20
2023-10-13T12:50:18.839Z,9.20
2023-10-13T12:51:18.839Z,4.50
2023-10-13T12:52:18.820Z,5.90
2023-10-13T12:53:18.791Z,5.90
2023-10-13T12:54:18.973Z,8.10
2023-10-13T12:55:18.841Z,7.00
2023-10-13T12:56:18.786Z,6.80
2023-10-13T12:57:18.755Z,6.60
2023-10-13T12:58:18.816Z,9.20
2023-10-13T12:59:18.714Z,6.20
2023-10-13T13:00:18.688Z,4.90
2023-10-13T13:01:18.749Z,7.20
2023-10-13T13:02:18.832Z,6.40